createdAt,value
2023-02-19T00:01:17.944Z,101793.63
2023-02-19T00:03:49.780Z,101791.50
2023-02-19T00:06:16.640Z,101801.31
2023-02-19T00:08:43.457Z,101806.25
2023-02-19T00:11:18.204Z,101800.84
2023-02-19T00:13:47.504Z,101805.47
2023-02-19T00:16:16.500Z,101808.22
2023-02-19T00:18:44.191Z,101815.44
2023-02-19T00:21:11.627Z,101805.91
2023-02-19T00:23:38.701Z,101803.31
2023-02-19T00:26:17.660Z,101803.78
2023-02-19T00:28:47.862Z,101813.78
2023-02-19T00:31:18.947Z,101811.47
2023-02-19T00:33:46.857Z,101813.13
2023-02-19T00:36:14.299Z,101811.28
2023-02-19T00:38:42.410Z,101820.34
2023-02-19T00:41:22.152Z,101824.09
2023-02-19T00:43:48.994Z,101830.34
2023-02-19T00:46:22.128Z,101828.69
2023-02-19T00:48:49.378Z,101828.06
2023-02-19T00:51:16.451Z,101826.88
2023-02-19T00:53:43.511Z,101826.56
2023-02-19T00:56:11.289Z,101823.47
2023-02-19T00:58:38.764Z,101821.50
2023-02-19T01:01:07.270Z,101818.75
2023-02-19T01:03:35.652Z,101821.84
2023-02-19T01:06:04.317Z,101822.34
2023-02-19T01:08:32.206Z,101823.97
2023-02-19T01:11:02.168Z,101841.00
2023-02-19T01:13:29.691Z,101830.88
2023-02-19T01:16:07.302Z,101832.00
2023-02-19T01:18:34.063Z,101833.47
2023-02-19T01:21:05.760Z,101833.09
2023-02-19T01:23:32.855Z,101837.72
2023-02-19T01:25:59.585Z,101843.28
2023-02-19T01:28:26.338Z,101847.34
2023-02-19T01:30:53.251Z,101841.16
2023-02-19T01:33:20.003Z,101835.69
2023-02-19T01:35:46.710Z,101842.41
2023-02-19T01:38:13.693Z,101849.31
2023-02-19T01:40:40.418Z,101849.13
2023-02-19T01:43:16.099Z,101851.75
2023-02-19T01:45:44.783Z,101841.44
2023-02-19T01:48:29.188Z,101842.09
2023-02-19T01:51:17.091Z,101855.88
2023-02-19T01:53:48.100Z,101847.47
2023-02-19T01:56:16.712Z,101854.31
2023-02-19T01:58:44.107Z,101860.50
2023-02-19T02:01:11.677Z,101859.28
2023-02-19T02:03:40.890Z,101856.34
2023-02-19T02:06:22.439Z,101855.38
2023-02-19T02:09:10.519Z,101850.13
2023-02-19T02:11:38.902Z,101857.50
2023-02-19T02:14:05.755Z,101867.69
2023-02-19T02:16:41.735Z,101867.03
2023-02-19T02:19:29.666Z,101868.34
2023-02-19T02:22:13.957Z,101871.25
2023-02-19T02:25:17.878Z,101870.59
2023-02-19T02:27:47.529Z,101875.88
2023-02-19T02:30:18.149Z,101867.03
2023-02-19T02:33:08.228Z,101863.91
2023-02-19T02:35:58.599Z,101870.59
2023-02-19T02:38:29.351Z,101869.03
2023-02-19T02:40:57.046Z,101871.16
2023-02-19T02:43:24.890Z,101871.34
2023-02-19T02:45:52.136Z,101860.50
2023-02-19T02:48:26.575Z,101863.47
2023-02-19T02:51:04.632Z,101869.84
2023-02-19T02:54:02.178Z,101874.13
2023-02-19T02:56:29.384Z,101876.25
2023-02-19T02:59:01.072Z,101890.19
2023-02-19T03:01:52.084Z,101883.47
2023-02-19T03:04:26.712Z,101886.91
2023-02-19T03:06:54.752Z,101891.97
2023-02-19T03:09:31.962Z,101892.78
2023-02-19T03:12:21.758Z,101892.28
2023-02-19T03:15:10.742Z,101889.34
2023-02-19T03:18:19.401Z,101903.91
2023-02-19T03:20:50.306Z,101898.34
2023-02-19T03:23:18.522Z,101908.81
2023-02-19T03:26:03.505Z,101912.59
2023-02-19T03:28:59.599Z,101909.19
2023-02-19T03:31:29.220Z,101920.13
2023-02-19T03:34:02.203Z,101916.53
2023-02-19T03:36:38.317Z,101909.19
2023-02-19T03:39:07.535Z,101912.09
2023-02-19T03:42:04.891Z,101918.47
2023-02-19T03:44:35.566Z,101922.91
2023-02-19T03:47:19.081Z,101925.53
2023-02-19T03:49:55.963Z,101929.25
2023-02-19T03:53:03.549Z,101921.19
2023-02-19T03:55:39.457Z,101924.31
2023-02-19T03:58:24.875Z,101938.13
2023-02-19T04:00:57.416Z,101934.69
2023-02-19T04:03:26.818Z,101931.19
2023-02-19T04:06:00.876Z,101930.91
2023-02-19T04:08:28.160Z,101955.94
2023-02-19T04:11:00.689Z,101947.78
2023-02-19T04:13:34.685Z,101953.19
2023-02-19T04:16:07.126Z,101953.97
2023-02-19T04:18:37.233Z,101956.91
2023-02-19T04:21:04.770Z,101956.25
2023-02-19T04:23:35.837Z,101959.56
2023-02-19T04:26:03.361Z,101971.47
2023-02-19T04:28:30.318Z,101972.50
2023-02-19T04:30:57.062Z,101976.09
2023-02-19T04:33:23.881Z,101977.41
2023-02-19T04:35:50.604Z,101986.06
2023-02-19T04:38:17.289Z,101997.38
2023-02-19T04:40:44.132Z,102002.75
2023-02-19T04:43:11.337Z,102008.66
2023-02-19T04:45:38.791Z,102010.63
2023-02-19T04:48:06.027Z,102012.78
2023-02-19T04:50:32.701Z,102013.94
2023-02-19T04:52:59.425Z,102016.91
2023-02-19T04:55:26.331Z,102024.75
2023-02-19T04:57:53.201Z,102013.66
2023-02-19T05:00:20.059Z,102033.44
2023-02-19T05:02:46.913Z,102027.88
2023-02-19T05:05:13.740Z,102029.66
2023-02-19T05:07:40.558Z,102036.41
2023-02-19T05:10:07.702Z,102032.13
2023-02-19T05:12:34.716Z,102038.22
2023-02-19T05:15:01.553Z,102044.41
2023-02-19T05:17:28.491Z,102050.31
2023-02-19T05:19:55.214Z,102044.91
2023-02-19T05:22:21.888Z,102055.38
2023-02-19T05:24:48.961Z,102046.22
2023-02-19T05:27:15.667Z,102050.47
2023-02-19T05:29:42.399Z,102050.97
2023-02-19T05:32:09.368Z,102049.81
2023-02-19T05:34:36.079Z,102057.03
2023-02-19T05:37:02.845Z,102057.19
2023-02-19T05:39:29.726Z,102055.22
2023-02-19T05:41:56.515Z,102051.78
2023-02-19T05:44:23.325Z,102057.19
2023-02-19T05:46:50.402Z,102066.03
2023-02-19T05:49:17.365Z,102062.28
2023-02-19T05:51:44.375Z,102073.53
2023-02-19T05:54:11.209Z,102077.81
2023-02-19T05:56:40.105Z,102073.06
2023-02-19T05:59:21.426Z,102078.81
2023-02-19T06:01:49.941Z,102081.59
2023-02-19T06:04:19.134Z,102084.84
2023-02-19T06:06:47.196Z,102089.78
2023-02-19T06:09:14.086Z,102096.78
2023-02-19T06:11:41.288Z,102102.03
2023-02-19T06:14:08.176Z,102097.47
2023-02-19T06:16:35.241Z,102101.88
2023-02-19T06:19:03.426Z,102110.88
2023-02-19T06:21:30.180Z,102106.31
2023-02-19T06:23:56.989Z,102113.19
2023-02-19T06:26:25.335Z,102103.34
2023-02-19T06:28:54.073Z,102115.78
2023-02-19T06:31:22.376Z,102113.00
2023-02-19T06:33:50.732Z,102118.25
2023-02-19T06:36:19.655Z,102122.84
2023-02-19T06:38:46.447Z,102115.31
2023-02-19T06:41:13.885Z,102125.47
2023-02-19T06:43:41.091Z,102126.78
2023-02-19T06:46:08.593Z,102133.63
2023-02-19T06:48:35.853Z,102139.69
2023-02-19T06:51:03.310Z,102135.78
2023-02-19T06:53:30.390Z,102148.84
2023-02-19T06:55:58.146Z,102159.81
2023-02-19T06:58:25.245Z,102157.66
2023-02-19T07:01:13.998Z,102165.03
2023-02-19T07:03:43.635Z,102167.47
2023-02-19T07:06:10.423Z,102163.38
2023-02-19T07:08:37.074Z,102177.16
2023-02-19T07:11:04.224Z,102176.31
2023-02-19T07:13:31.055Z,102187.63
2023-02-19T07:16:08.005Z,102185.50
2023-02-19T07:18:35.050Z,102189.56
2023-02-19T07:21:10.977Z,102192.97
2023-02-19T07:23:38.376Z,102201.66
2023-02-19T07:26:05.559Z,102206.19
2023-02-19T07:28:32.285Z,102211.50
2023-02-19T07:31:03.414Z,102215.88
2023-02-19T07:33:30.860Z,102223.56
2023-02-19T07:35:57.694Z,102222.25
2023-02-19T07:38:25.239Z,102219.47
2023-02-19T07:40:52.776Z,102223.75
2023-02-19T07:43:19.638Z,102234.94
2023-02-19T07:45:46.428Z,102243.13
2023-02-19T07:48:13.424Z,102233.47
2023-02-19T07:50:40.207Z,102247.72
2023-02-19T07:53:06.790Z,102246.59
2023-02-19T07:55:34.035Z,102243.75
2023-02-19T07:58:01.107Z,102244.06
2023-02-19T08:00:28.031Z,102241.28
2023-02-19T08:03:00.770Z,102251.94
2023-02-19T08:05:30.663Z,102265.69
2023-02-19T08:07:58.837Z,102268.63
2023-02-19T08:10:44.897Z,102266.69
2023-02-19T08:13:19.606Z,102266.06
2023-02-19T08:15:46.993Z,102265.53
2023-02-19T08:18:14.724Z,102265.53
2023-02-19T08:20:41.377Z,102273.25
2023-02-19T08:23:08.991Z,102278.63
2023-02-19T08:25:36.137Z,102289.78
2023-02-19T08:28:02.982Z,102295.84
2023-02-19T08:30:30.995Z,102298.28
2023-02-19T08:33:01.312Z,102299.94
2023-02-19T08:35:28.967Z,102313.66
2023-02-19T08:37:57.441Z,102300.94
2023-02-19T08:40:25.301Z,102295.41
2023-02-19T08:42:52.176Z,102304.44
2023-02-19T08:45:19.243Z,102290.28
2023-02-19T08:47:46.705Z,102298.63
2023-02-19T08:50:13.450Z,102302.88
2023-02-19T08:52:42.582Z,102312.81
2023-02-19T08:55:09.408Z,102300.03
2023-02-19T08:57:37.732Z,102301.03
2023-02-19T09:00:06.540Z,102297.38
2023-02-19T09:02:33.538Z,102306.56
2023-02-19T09:05:00.289Z,102324.75
2023-02-19T09:07:27.648Z,102328.50
2023-02-19T09:09:54.644Z,102333.63
2023-02-19T09:12:21.466Z,102338.38
2023-02-19T09:14:48.372Z,102338.91
2023-02-19T09:17:15.007Z,102342.50
2023-02-19T09:19:41.951Z,102349.09
2023-02-19T09:22:09.283Z,102357.16
2023-02-19T09:24:36.172Z,102376.31
2023-02-19T09:27:02.835Z,102382.38
2023-02-19T09:29:29.771Z,102378.00
2023-02-19T09:32:00.463Z,102383.72
2023-02-19T09:34:28.403Z,102387.34
2023-02-19T09:36:55.664Z,102378.97
2023-02-19T09:39:22.505Z,102385.03
2023-02-19T09:41:52.284Z,102399.94
2023-02-19T09:44:34.446Z,102408.75
2023-02-19T09:47:02.222Z,102415.56
2023-02-19T09:49:33.854Z,102419.81
2023-02-19T09:52:12.440Z,102417.25
2023-02-19T09:54:40.020Z,102426.91
2023-02-19T09:57:14.706Z,102432.66
2023-02-19T09:59:47.969Z,102431.94
2023-02-19T10:02:18.762Z,102436.00
2023-02-19T10:04:46.976Z,102444.84
2023-02-19T10:07:26.114Z,102439.84
2023-02-19T10:09:53.855Z,102459.09
2023-02-19T10:12:26.016Z,102464.00
2023-02-19T10:14:56.497Z,102479.31
2023-02-19T10:17:25.658Z,102479.72
2023-02-19T10:19:52.985Z,102487.97
2023-02-19T10:22:20.519Z,102497.38
2023-02-19T10:24:51.835Z,102487.00
2023-02-19T10:27:18.977Z,102486.59
2023-02-19T10:29:47.412Z,102487.28
2023-02-19T10:32:14.273Z,102495.50
2023-02-19T10:34:40.963Z,102512.13
2023-02-19T10:37:12.458Z,102490.94
2023-02-19T10:39:43.257Z,102499.28
2023-02-19T10:42:23.329Z,102495.31
2023-02-19T10:44:54.359Z,102495.47
2023-02-19T10:47:23.529Z,102496.97
2023-02-19T10:49:51.379Z,102481.47
2023-02-19T10:52:22.579Z,102475.69
2023-02-19T10:54:56.711Z,102480.38
2023-02-19T10:57:30.662Z,102481.09
2023-02-19T11:00:19.786Z,102489.63
2023-02-19T11:02:47.105Z,102509.44
2023-02-19T11:05:23.465Z,102508.69
2023-02-19T11:07:53.791Z,102513.59
2023-02-19T11:10:29.036Z,102521.19
2023-02-19T11:12:59.633Z,102523.16
2023-02-19T11:15:33.625Z,102530.69
2023-02-19T11:18:12.961Z,102539.53
2023-02-19T11:20:48.918Z,102531.13
2023-02-19T11:23:20.089Z,102540.25
2023-02-19T11:25:51.276Z,102544.47
2023-02-19T11:28:37.972Z,102548.19
2023-02-19T11:31:23.189Z,102544.59
2023-02-19T11:33:59.475Z,102534.59
2023-02-19T11:36:30.900Z,102543.06
2023-02-19T11:39:02.052Z,102546.44
2023-02-19T11:52:10.096Z,102535.16
2023-02-19T12:10:17.894Z,102555.09
2023-02-19T12:13:06.595Z,102557.09
2023-02-19T12:16:01.379Z,102550.50
2023-02-19T12:18:40.355Z,102554.88
2023-02-19T12:21:22.501Z,102561.72
2023-02-19T12:24:01.568Z,102569.88
2023-02-19T12:26:29.560Z,102571.44
2023-02-19T12:29:28.341Z,102593.47
2023-02-19T12:32:23.497Z,102580.28
2023-02-19T12:35:12.696Z,102581.03
2023-02-19T12:37:58.226Z,102587.84
2023-02-19T12:40:43.426Z,102578.84
2023-02-19T12:43:20.642Z,102587.28
2023-02-19T12:46:13.910Z,102588.59
2023-02-19T12:48:48.356Z,102601.47
2023-02-19T12:51:23.511Z,102617.78
2023-02-19T12:53:56.331Z,102618.25
2023-02-19T12:56:37.135Z,102627.44
2023-02-19T13:29:29.938Z,102656.59
2023-02-19T14:15:44.599Z,102663.03
2023-02-19T14:18:42.746Z,102648.34
2023-02-19T14:21:28.055Z,102637.97
2023-02-19T14:23:58.400Z,102645.59
2023-02-19T14:26:26.689Z,102629.91
2023-02-19T14:28:53.996Z,102636.09
2023-02-19T14:31:29.277Z,102628.72
2023-02-19T14:34:00.525Z,102622.03
2023-02-19T14:36:30.074Z,102614.41
2023-02-19T14:38:59.206Z,102614.50
2023-02-19T14:41:27.234Z,102615.53
2023-02-19T14:43:56.950Z,102615.31
2023-02-19T14:46:32.183Z,102622.31
2023-02-19T14:49:05.553Z,102616.56
2023-02-19T14:51:40.813Z,102613.69
2023-02-19T14:54:15.787Z,102616.56
2023-02-19T14:56:45.407Z,102620.34
2023-02-19T14:59:11.967Z,102614.41
2023-02-19T15:01:39.077Z,102614.59
2023-02-19T15:04:06.521Z,102633.75
2023-02-19T15:06:35.180Z,102633.03
2023-02-19T15:09:07.100Z,102639.63
2023-02-19T15:11:35.318Z,102639.53
2023-02-19T15:14:04.549Z,102646.81
2023-02-19T15:16:32.712Z,102658.63
2023-02-19T15:19:00.219Z,102664.88
2023-02-19T15:21:32.279Z,102660.44
2023-02-19T15:24:04.332Z,102660.03
2023-02-19T15:26:42.299Z,102665.56
2023-02-19T15:29:17.065Z,102667.28
2023-02-19T15:31:52.322Z,102669.75
2023-02-19T15:34:20.516Z,102661.97
2023-02-19T15:36:48.256Z,102666.28
2023-02-19T15:39:26.208Z,102666.69
2023-02-19T15:42:14.336Z,102664.59
2023-02-19T15:45:18.766Z,102672.47
2023-02-19T15:47:53.912Z,102675.97
2023-02-19T15:50:31.952Z,102665.94
2023-02-19T15:52:59.601Z,102669.69
2023-02-19T15:55:51.977Z,102671.88
2023-02-19T15:58:56.412Z,102681.19
2023-02-19T16:01:31.118Z,102686.34
2023-02-19T16:03:58.499Z,102696.78
2023-02-19T16:06:26.517Z,102697.91
2023-02-19T16:09:02.381Z,102695.66
2023-02-19T16:11:53.201Z,102690.69
2023-02-19T16:14:30.663Z,102694.41
2023-02-19T16:17:11.449Z,102690.63
2023-02-19T16:19:47.996Z,102696.84
2023-02-19T16:22:18.588Z,102696.59
2023-02-19T16:24:47.561Z,102703.97
2023-02-19T16:27:26.097Z,102700.81
2023-02-19T16:29:53.260Z,102700.00
2023-02-19T16:32:20.090Z,102701.03
2023-02-19T16:34:48.440Z,102696.16
2023-02-19T16:37:35.134Z,102693.16
2023-02-19T16:40:11.234Z,102681.78
2023-02-19T16:42:50.656Z,102675.25
2023-02-19T16:45:18.012Z,102673.81
2023-02-19T16:47:48.205Z,102679.84
2023-02-19T16:50:47.670Z,102685.09
2023-02-19T16:53:24.801Z,102690.03
2023-02-19T16:55:52.129Z,102697.53
2023-02-19T16:58:18.827Z,102695.31
2023-02-19T17:00:45.587Z,102707.69
2023-02-19T17:03:15.360Z,102702.06
2023-02-19T17:05:42.533Z,102696.69
2023-02-19T17:08:46.318Z,102704.44
2023-02-19T17:11:15.475Z,102699.38
2023-02-19T17:13:42.931Z,102714.34
2023-02-19T17:16:17.407Z,102709.38
2023-02-19T17:18:44.195Z,102702.66
2023-02-19T17:21:15.956Z,102704.00
2023-02-19T17:23:42.759Z,102723.88
2023-02-19T17:26:21.690Z,102732.78
2023-02-19T17:28:48.883Z,102730.09
2023-02-19T17:31:16.258Z,102725.81
2023-02-19T17:33:43.711Z,102734.69
2023-02-19T17:36:38.135Z,102724.34
2023-02-19T17:39:07.147Z,102727.19
2023-02-19T17:41:33.801Z,102719.44
2023-02-19T17:44:00.550Z,102717.41
2023-02-19T17:46:27.752Z,102715.31
2023-02-19T17:48:55.206Z,102703.50
2023-02-19T17:51:22.388Z,102701.13
2023-02-19T17:53:49.353Z,102711.63
2023-02-19T17:56:20.746Z,102713.78
2023-02-19T17:58:47.766Z,102710.72
2023-02-19T18:01:15.131Z,102707.72
2023-02-19T18:03:42.910Z,102713.25
2023-02-19T18:06:09.734Z,102700.03
2023-02-19T18:08:36.893Z,102691.59
2023-02-19T18:11:03.899Z,102692.56
2023-02-19T18:13:30.689Z,102689.38
2023-02-19T18:15:57.526Z,102684.31
2023-02-19T18:18:24.154Z,102688.44
2023-02-19T18:20:50.956Z,102695.91
2023-02-19T18:23:17.705Z,102699.97
2023-02-19T18:26:19.036Z,102692.44
2023-02-19T18:28:45.854Z,102704.78
2023-02-19T18:31:12.730Z,102706.53
2023-02-19T18:33:39.696Z,102705.50
2023-02-19T18:36:10.565Z,102708.91
2023-02-19T18:38:37.423Z,102713.88
2023-02-19T18:41:04.268Z,102718.00
2023-02-19T18:43:31.211Z,102723.03
2023-02-19T18:45:58.027Z,102718.38
2023-02-19T18:48:24.858Z,102714.25
2023-02-19T18:50:51.663Z,102716.13
2023-02-19T18:53:18.448Z,102713.31
2023-02-19T18:55:45.279Z,102717.28
2023-02-19T18:58:12.051Z,102718.69
2023-02-19T19:00:38.736Z,102718.81
2023-02-19T19:03:06.510Z,102713.72
2023-02-19T19:05:33.450Z,102718.91
2023-02-19T19:08:01.847Z,102712.47
2023-02-19T19:10:29.923Z,102699.56
2023-02-19T19:12:57.594Z,102701.44
2023-02-19T19:15:24.747Z,102700.97
2023-02-19T19:17:52.295Z,102707.34
2023-02-19T19:20:20.527Z,102707.44
2023-02-19T19:22:51.711Z,102709.53
2023-02-19T19:25:19.499Z,102719.38
2023-02-19T19:27:46.887Z,102714.94
2023-02-19T19:30:14.367Z,102715.16
2023-02-19T19:32:41.965Z,102703.59
2023-02-19T19:35:09.556Z,102707.03
2023-02-19T19:37:36.298Z,102708.19
2023-02-19T19:40:04.061Z,102708.25
2023-02-19T19:42:30.834Z,102691.06
2023-02-19T19:44:58.127Z,102695.50
2023-02-19T19:47:25.406Z,102688.34
2023-02-19T19:49:52.453Z,102696.91
2023-02-19T19:52:19.191Z,102704.09
2023-02-19T19:54:45.830Z,102707.16
2023-02-19T19:57:13.138Z,102703.28
2023-02-19T19:59:39.844Z,102707.97
2023-02-19T20:02:07.729Z,102699.91
2023-02-19T20:04:34.448Z,102695.19
2023-02-19T20:07:02.362Z,102699.94
2023-02-19T20:09:29.564Z,102691.66
2023-02-19T20:11:56.594Z,102689.41
2023-02-19T20:14:24.770Z,102674.69
2023-02-19T20:16:52.618Z,102678.34
2023-02-19T20:19:20.231Z,102676.44
2023-02-19T20:21:50.839Z,102682.81
2023-02-19T20:24:24.362Z,102683.63
2023-02-19T20:26:53.396Z,102676.44
2023-02-19T20:29:20.378Z,102677.13
2023-02-19T20:31:50.883Z,102680.66
2023-02-19T20:34:18.542Z,102666.88
2023-02-19T20:36:46.806Z,102680.16
2023-02-19T20:39:16.420Z,102682.94
2023-02-19T20:41:48.837Z,102681.78
2023-02-19T20:44:19.454Z,102671.78
2023-02-19T20:46:48.940Z,102682.31
2023-02-19T20:49:17.598Z,102676.78
2023-02-19T20:51:50.232Z,102679.84
2023-02-19T20:54:20.780Z,102661.84
2023-02-19T20:56:54.177Z,102651.28
2023-02-19T20:59:24.337Z,102650.16
2023-02-19T21:01:51.864Z,102652.09
2023-02-19T21:04:19.118Z,102643.47
2023-02-19T21:06:46.100Z,102642.38
2023-02-19T21:09:13.029Z,102640.69
2023-02-19T21:11:39.813Z,102634.06
2023-02-19T21:14:06.775Z,102636.00
2023-02-19T21:16:33.766Z,102636.56
2023-02-19T21:19:00.909Z,102644.31
2023-02-19T21:21:30.028Z,102651.50
2023-02-19T21:23:58.136Z,102644.81
2023-02-19T21:26:25.699Z,102645.94
2023-02-19T21:28:52.672Z,102656.75
2023-02-19T21:31:21.664Z,102651.50
2023-02-19T21:33:49.375Z,102644.56
2023-02-19T21:36:18.491Z,102641.22
2023-02-19T21:38:45.256Z,102638.44
2023-02-19T21:41:12.000Z,102639.28
2023-02-19T21:43:39.939Z,102635.94
2023-02-19T21:46:06.711Z,102631.50
2023-02-19T21:48:33.706Z,102634.25
2023-02-19T21:51:00.911Z,102643.28
2023-02-19T21:53:27.779Z,102634.72
2023-02-19T21:55:58.808Z,102630.81
2023-02-19T21:58:26.405Z,102641.03
2023-02-19T22:00:58.731Z,102635.28
2023-02-19T22:03:26.667Z,102640.25
2023-02-19T22:05:57.770Z,102630.28
2023-02-19T22:08:26.512Z,102626.94
2023-02-19T22:11:04.932Z,102627.94
2023-02-19T22:13:32.272Z,102620.41
2023-02-19T22:16:00.399Z,102616.50
2023-02-19T22:18:27.583Z,102620.41
2023-02-19T22:20:54.288Z,102616.44
2023-02-19T22:23:21.062Z,102610.38
2023-02-19T22:25:47.665Z,102609.00
2023-02-19T22:28:14.370Z,102601.81
2023-02-19T22:30:42.819Z,102610.91
2023-02-19T22:33:09.923Z,102607.28
2023-02-19T22:35:36.776Z,102590.97
2023-02-19T22:38:03.536Z,102582.81
2023-02-19T22:40:30.233Z,102581.50
2023-02-19T22:42:56.930Z,102575.06
2023-02-19T22:45:25.137Z,102574.50
2023-02-19T22:47:55.538Z,102566.47
2023-02-19T22:50:22.873Z,102562.69
2023-02-19T22:52:50.257Z,102561.72
2023-02-19T22:55:17.311Z,102560.94
2023-02-19T22:57:43.949Z,102559.81
2023-02-19T23:00:17.463Z,102553.06
2023-02-19T23:02:44.224Z,102564.69
2023-02-19T23:05:10.794Z,102573.00
2023-02-19T23:07:37.512Z,102573.63
2023-02-19T23:10:04.371Z,102581.63
2023-02-19T23:12:31.052Z,102586.34
2023-02-19T23:14:57.774Z,102596.31
2023-02-19T23:17:24.438Z,102586.56
2023-02-19T23:19:51.077Z,102581.53
2023-02-19T23:22:17.944Z,102585.06
2023-02-19T23:24:44.719Z,102582.31
2023-02-19T23:27:11.333Z,102577.00
2023-02-19T23:29:38.119Z,102573.06
2023-02-19T23:32:04.941Z,102564.09
2023-02-19T23:34:31.937Z,102559.69
2023-02-19T23:37:02.362Z,102551.88
2023-02-19T23:39:29.220Z,102538.31
2023-02-19T23:41:57.317Z,102523.16
2023-02-19T23:44:25.269Z,102516.56
2023-02-19T23:46:52.462Z,102513.13
2023-02-19T23:49:19.389Z,102512.22
2023-02-19T23:51:46.418Z,102517.81
2023-02-19T23:54:13.131Z,102514.13
2023-02-19T23:56:39.875Z,102516.38
2023-02-19T23:59:06.638Z,102511.84
